Impacts TAF Board INFO
FOR SITUATIONAL AWARENESS. NOT TO BE USED FOR FLIGHT PLANNING PURPOSES.
IDs:

KEWR - Newark Intl, NJ, US

Issued at 1930 UTC 28 Mar 2017
Updated at 1942 UTC 28 Mar 2017
Potential Impact None Slight Moderate High
Time1929Z 28/20Z 28/21Z 28/22Z 28/23Z 29/00Z 29/01Z 29/02Z 29/03Z 29/04Z 29/05Z 29/06Z 29/07Z 29/08Z
Type OBS PRVL
  [TEMP]  
PRVL
  [TEMP]  
PRVL
  [TEMP]  
PRVL PRVL PRVL PRVL PRVL PRVL PRVL PRVL PRVL PRVL
VIS 3 3
  [2]  
3
  [2]  
3
  [2]  
3 3 3 3 3 3 5 5 5 >6
CIG 10 6
  [4]  
6
  [4]  
6
  [4]  
4 4 4 4 4 4 12 12 12 20
Cover OVC OVC
  [OVC]  
OVC
  [OVC]  
OVC
  [OVC]  
OVC OVC OVC OVC OVC OVC OVC OVC OVC BKN
FltCat MVFR IFR
  [LIFR]  
IFR
  [LIFR]  
IFR
  [LIFR]  
LIFR LIFR LIFR LIFR LIFR LIFR MVFR MVFR MVFR MVFR
WX -- -RA BR
  [BR]  
-RA BR
  [BR]  
-RA BR
  [BR]  
-RA BR -RA BR -RA BR -RA BR -RA BR -RA BR BR BR BR --
WDir 30 60
[60]
60
[60]
60
[60]
40 40 40 40 40 40 360 360 360 340
WSpd 13 8
  [8]  
8
  [8]  
8
  [8]  
4 4 4 4 4 4 5 5 5 8
WGst -- --
  [--]  
--
  [--]  
--
  [--]  
-- -- -- -- -- -- -- -- -- --

Raw TAF
KEWR 281930Z 2820/2924 06008KT 3SM -RA BR OVC006
  TEMPO 2820/2823 2SM BR OVC004
  FM282300 04004KT 3SM -RA BR OVC004
  FM290500 36005KT 5SM BR OVC012
  FM290800 34008KT P6SM BKN020
  FM291200 34010KT P6SM BKN050
  FM291500 34014KT P6SM SCT250


Raw METAR
KEWR 281929Z 03013KT 3SM SCT006 BKN010 OVC015 07/07 A2987 RMK AO2 SFC VIS 7 RAB00E13 CIG 009V011 P0000 T00720067
KEWR 281851Z 04011KT 1 1/2SM BR BKN006 OVC012 07/07 A2989 RMK AO2 SFC VIS 6 RAE46 SLP122 CIG 005V007 P0007 T00720067
KEWR 281751Z 02004KT 1 1/2SM RA BR OVC007 07/07 A2994 RMK AO2 SFC VIS 3 SLP138 CIG 006V008 P0005 60022 T00720072 10078 20072 55003
KEWR 281651Z 33006KT 1 1/2SM -RA BR OVC005 07/07 A2993 RMK AO2 SFC VIS 5 RAE06B32 SLP133 CIG 004V007 P0001 T00720067
KEWR 281643Z 36008KT 1 1/2SM -RA BR OVC005 07/07 A2993 RMK AO2 SFC VIS 4 RAE06B32 CIG 004V007 P0001 T00720067

METAR Board
Radar Display
Forecast Discussion

FOR SITUATIONAL AWARENESS. NOT TO BE USED FOR FLIGHT PLANNING PURPOSES.

Page loaded:  19:42 UTC  |   12:42 PM Pacific  |   01:42 PM Mountain  |   02:42 PM Central  |   03:42 PM Eastern

 

ADVISORIES

FORECASTS

FORECASTS

OBSERVATIONS

USER TOOLS

ABOUT US